Time;durP1;ratioP1;P1;durP2;ratioP2;P2;SDS_P1;SDS_P2;PMS_P1;PMS_P2;Temp;Humidity;BMP_temperature;BMP_pressure;BME280_temperature;BME280_humidity;BME280_pressure;Samples;Min_cycle;Max_cycle;Signal;HPM_P1;HPM_P2
2021/05/01 00:00:04;;;;;;;33.47;26.93;;;9.30;99.90;;;;;;5095080;28;20224;-64
2021/05/01 00:02:30;;;;;;;28.80;25.13;;;9.40;99.90;;;;;;5096035;28;20208;-64
2021/05/01 00:04:56;;;;;;;31.37;26.20;;;9.30;99.90;;;;;;5094993;28;20700;-64
2021/05/01 00:07:22;;;;;;;31.73;26.60;;;9.30;99.90;;;;;;5094122;28;20212;-64
2021/05/01 00:09:49;;;;;;;32.37;27.77;;;9.20;99.90;;;;;;5093610;28;20235;-64
2021/05/01 00:12:15;;;;;;;34.63;27.93;;;9.20;99.90;;;;;;5092752;28;20200;-64
2021/05/01 00:14:42;;;;;;;31.97;27.07;;;9.20;99.90;;;;;;5093776;28;20226;-64
2021/05/01 00:17:08;;;;;;;32.07;27.70;;;9.30;99.90;;;;;;5093765;28;20212;-64
2021/05/01 00:19:34;;;;;;;33.07;27.33;;;9.20;99.90;;;;;;5093427;28;20232;-64
2021/05/01 00:22:01;;;;;;;31.50;27.17;;;9.30;99.90;;;;;;5093673;28;20208;-64
2021/05/01 00:24:27;;;;;;;33.33;27.43;;;9.20;99.90;;;;;;5094134;28;20212;-64
2021/05/01 00:26:54;;;;;;;35.40;29.20;;;9.20;99.90;;;;;;5094193;28;20676;-64
2021/05/01 00:29:21;;;;;;;34.37;29.10;;;9.20;99.90;;;;;;5094282;28;20478;-64
2021/05/01 00:31:47;;;;;;;33.73;28.13;;;9.10;99.90;;;;;;5093590;28;20238;-64
2021/05/01 00:34:13;;;;;;;37.77;30.43;;;9.20;99.90;;;;;;5093321;28;20245;-64
2021/05/01 00:36:40;;;;;;;37.50;30.33;;;9.20;99.90;;;;;;5093362;28;20257;-63
2021/05/01 00:39:06;;;;;;;37.07;30.40;;;9.30;99.90;;;;;;5093195;28;20228;-64
2021/05/01 00:41:33;;;;;;;38.93;31.87;;;9.30;99.90;;;;;;5093167;28;20718;-64
2021/05/01 00:44:03;;;;;;;36.80;30.90;;;9.40;99.90;;;;;;5093031;28;20277;-63
2021/05/01 00:46:30;;;;;;;37.53;31.27;;;9.40;99.90;;;;;;5092931;28;20224;-64
2021/05/01 00:48:56;;;;;;;35.53;29.77;;;9.40;99.90;;;;;;5092802;28;20224;-64
2021/05/01 00:51:22;;;;;;;33.50;27.93;;;9.40;99.90;;;;;;5092710;28;20205;-64
2021/05/01 00:53:48;;;;;;;32.37;27.80;;;9.40;99.90;;;;;;5092921;28;20212;-64
2021/05/01 00:56:15;;;;;;;32.77;26.60;;;9.40;99.90;;;;;;5092956;28;20208;-64
2021/05/01 00:58:42;;;;;;;35.17;27.17;;;9.30;99.90;;;;;;5092756;28;20220;-64
2021/05/01 01:01:17;;;;;;;32.17;27.67;;;9.20;99.90;;;;;;5092620;28;20230;-64
2021/05/01 01:03:44;;;;;;;33.70;28.13;;;9.20;99.90;;;;;;5092560;28;20214;-64
2021/05/01 01:06:12;;;;;;;34.87;29.03;;;9.10;99.90;;;;;;5092769;28;20274;-64
2021/05/01 01:08:38;;;;;;;34.97;27.67;;;9.10;99.90;;;;;;5092652;28;20327;-64
2021/05/01 01:11:04;;;;;;;33.03;27.73;;;9.00;99.90;;;;;;5092707;28;20204;-64
2021/05/01 01:13:31;;;;;;;34.20;28.03;;;8.90;99.90;;;;;;5092599;28;20212;-64
2021/05/01 01:15:57;;;;;;;33.90;28.40;;;8.90;99.90;;;;;;5092532;28;20204;-64
2021/05/01 01:18:25;;;;;;;33.93;28.63;;;8.90;99.90;;;;;;5092301;28;20208;-64
2021/05/01 01:20:51;;;;;;;34.17;28.60;;;8.80;99.90;;;;;;5092583;28;20216;-64
2021/05/01 01:23:18;;;;;;;34.43;28.80;;;8.80;99.90;;;;;;5091900;28;20584;-64
2021/05/01 01:25:45;;;;;;;37.20;29.33;;;8.80;99.90;;;;;;5092083;28;20655;-64
2021/05/01 01:28:11;;;;;;;37.83;29.37;;;8.80;99.90;;;;;;5092433;28;20676;-64
2021/05/01 01:30:37;;;;;;;37.03;30.43;;;8.80;99.90;;;;;;5092164;28;20208;-64
2021/05/01 01:33:06;;;;;;;38.17;29.90;;;8.90;99.90;;;;;;5091992;28;20671;-64
2021/05/01 01:35:32;;;;;;;34.23;28.40;;;9.00;99.90;;;;;;5092114;28;20691;-64
2021/05/01 01:37:59;;;;;;;36.37;29.13;;;9.10;99.90;;;;;;5092132;28;20204;-64
2021/05/01 01:40:27;;;;;;;34.17;28.83;;;9.10;99.90;;;;;;5092136;28;20271;-64
2021/05/01 01:42:53;;;;;;;35.93;28.17;;;9.10;99.90;;;;;;5092046;28;20573;-65
2021/05/01 01:45:24;;;;;;;32.07;27.87;;;9.00;99.90;;;;;;5091533;28;20252;-64
2021/05/01 01:47:51;;;;;;;32.67;26.73;;;8.90;99.90;;;;;;5091901;28;20222;-65
2021/05/01 01:50:18;;;;;;;32.77;28.33;;;8.70;99.90;;;;;;5091882;28;20228;-64
2021/05/01 01:52:45;;;;;;;37.77;29.80;;;8.60;99.90;;;;;;5091860;28;20212;-65
2021/05/01 01:55:14;;;;;;;35.00;28.57;;;8.50;99.90;;;;;;5091670;28;20204;-65
2021/05/01 01:57:42;;;;;;;37.17;28.73;;;8.60;99.90;;;;;;5091740;28;20223;-64
2021/05/01 02:00:11;;;;;;;36.90;30.07;;;8.60;99.90;;;;;;5091402;28;20224;-64
2021/05/01 02:02:37;;;;;;;38.37;30.43;;;8.70;99.90;;;;;;5091789;28;20230;-64
2021/05/01 02:05:03;;;;;;;37.07;29.87;;;8.80;99.90;;;;;;5091498;28;20220;-64
2021/05/01 02:07:30;;;;;;;38.07;30.30;;;8.70;99.90;;;;;;5091520;28;20200;-64
2021/05/01 02:09:56;;;;;;;38.33;30.20;;;8.70;99.90;;;;;;5091326;28;20224;-64
2021/05/01 02:12:23;;;;;;;37.57;29.23;;;8.70;99.90;;;;;;5091451;28;20694;-64
2021/05/01 02:14:50;;;;;;;35.50;30.10;;;8.70;99.90;;;;;;5091664;28;20208;-64
2021/05/01 02:17:16;;;;;;;37.33;29.50;;;8.60;99.90;;;;;;5091739;28;20607;-65
2021/05/01 02:19:42;;;;;;;39.07;30.40;;;8.60;99.90;;;;;;5091206;28;20232;-64
2021/05/01 02:22:09;;;;;;;35.83;29.67;;;8.60;99.90;;;;;;5091546;28;20215;-64
2021/05/01 02:24:35;;;;;;;35.10;28.47;;;8.60;99.90;;;;;;5091369;28;20209;-64
2021/05/01 02:27:01;;;;;;;35.03;28.17;;;8.50;99.90;;;;;;5091276;28;20208;-64
2021/05/01 02:29:27;;;;;;;34.53;27.77;;;8.40;99.90;;;;;;5091315;28;20301;-64
2021/05/01 02:31:54;;;;;;;34.13;28.73;;;8.20;99.90;;;;;;5091175;28;20745;-64
2021/05/01 02:34:20;;;;;;;34.47;27.03;;;8.10;99.90;;;;;;5091313;28;20663;-64
2021/05/01 02:36:47;;;;;;;33.93;28.20;;;8.00;99.90;;;;;;5091217;28;20196;-64
2021/05/01 02:39:13;;;;;;;36.93;29.13;;;7.90;99.90;;;;;;5090967;28;20231;-64
2021/05/01 02:41:40;;;;;;;35.80;28.40;;;7.90;99.90;;;;;;5091800;28;20201;-64
2021/05/01 02:44:06;;;;;;;38.40;30.07;;;7.80;99.90;;;;;;5091236;28;20212;-64
2021/05/01 02:46:32;;;;;;;38.60;30.30;;;7.70;99.90;;;;;;5091218;28;20228;-64
2021/05/01 02:48:59;;;;;;;44.77;33.67;;;7.60;99.90;;;;;;5091172;28;20228;-64
2021/05/01 02:51:25;;;;;;;42.60;33.87;;;7.40;99.90;;;;;;5091147;28;20204;-65
2021/05/01 02:53:52;;;;;;;42.03;32.50;;;7.40;99.90;;;;;;5090976;28;20211;-63
2021/05/01 02:56:18;;;;;;;40.77;32.30;;;7.30;99.90;;;;;;5090966;28;20196;-63
2021/05/01 02:58:44;;;;;;;43.17;30.87;;;7.30;99.90;;;;;;5090860;28;20257;-63
2021/05/01 03:01:10;;;;;;;41.33;31.93;;;7.40;99.90;;;;;;5091087;28;20222;-63
2021/05/01 03:03:36;;;;;;;43.40;32.77;;;7.40;99.90;;;;;;5090698;28;20672;-64
2021/05/01 03:06:04;;;;;;;45.43;32.90;;;7.40;99.90;;;;;;5090952;28;20285;-63
2021/05/01 03:08:30;;;;;;;41.30;32.53;;;7.40;99.90;;;;;;5090685;28;20204;-65
2021/05/01 03:10:56;;;;;;;47.03;33.07;;;7.40;99.90;;;;;;5090721;28;20640;-65
2021/05/01 03:13:22;;;;;;;49.00;32.97;;;7.40;99.90;;;;;;5091020;28;20262;-65
2021/05/01 03:15:49;;;;;;;51.00;34.67;;;7.30;99.90;;;;;;5091188;28;20269;-64
2021/05/01 03:18:15;;;;;;;94.30;33.20;;;7.10;99.90;;;;;;5091572;28;20213;-65
2021/05/01 03:20:41;;;;;;;56.43;35.47;;;7.10;99.90;;;;;;5102760;22;20321;-62
2021/05/01 03:23:09;;;;;;;56.43;35.50;;;7.10;99.90;;;;;;5090627;28;20578;-64
2021/05/01 03:25:35;;;;;;;81.97;35.73;;;7.20;99.90;;;;;;5090208;28;20216;-62
2021/05/01 03:28:01;;;;;;;84.33;35.30;;;7.30;99.90;;;;;;5090461;28;20624;-62
2021/05/01 03:30:27;;;;;;;239.87;36.33;;;7.30;99.90;;;;;;5074883;28;20225;-62
2021/05/01 03:32:53;;;;;;;93.73;35.00;;;7.40;99.90;;;;;;5070371;28;20205;-61
2021/05/01 03:35:20;;;;;;;123.77;37.10;;;7.30;99.90;;;;;;5070196;28;20576;-61
2021/05/01 03:37:48;;;;;;;126.67;36.60;;;7.30;99.90;;;;;;5070060;28;20216;-62
2021/05/01 03:40:15;;;;;;;147.83;36.07;;;7.40;99.90;;;;;;5070317;28;20306;-61
2021/05/01 03:42:42;;;;;;;129.37;35.10;;;7.60;99.90;;;;;;5070487;28;20215;-61
2021/05/01 03:45:09;;;;;;;148.87;34.83;;;7.70;99.90;;;;;;5069968;28;20311;-61
2021/05/01 03:47:36;;;;;;;131.57;34.00;;;7.70;99.90;;;;;;5072526;28;20201;-61
2021/05/01 03:50:03;;;;;;;144.73;34.03;;;7.70;99.90;;;;;;5073670;28;20225;-62
2021/05/01 03:52:29;;;;;;;182.83;35.03;;;7.60;99.90;;;;;;5074226;28;20208;-61
2021/05/01 03:54:55;;;;;;;77.70;32.63;;;7.70;99.90;;;;;;5073846;28;20209;-62
2021/05/01 03:57:22;;;;;;;84.67;34.40;;;7.70;99.90;;;;;;5073746;28;20685;-62
2021/05/01 03:59:49;;;;;;;166.73;36.07;;;7.80;99.90;;;;;;5073850;28;20239;-62
2021/05/01 04:02:16;;;;;;;123.17;34.97;;;7.70;99.90;;;;;;5073717;28;20229;-62
2021/05/01 04:04:42;;;;;;;135.30;32.90;;;7.60;99.90;;;;;;5073392;28;20290;-61
2021/05/01 04:07:08;;;;;;;77.50;35.20;;;7.50;99.90;;;;;;5073456;28;20692;-61
2021/05/01 04:09:34;;;;;;;70.90;32.77;;;7.50;99.90;;;;;;5074649;28;20235;-61
2021/05/01 04:12:00;;;;;;;88.70;34.07;;;7.50;99.90;;;;;;5073614;28;20205;-61
2021/05/01 04:14:27;;;;;;;73.47;33.33;;;7.50;99.90;;;;;;5073327;28;20588;-61
2021/05/01 04:16:54;;;;;;;118.17;32.73;;;7.60;99.90;;;;;;5073458;28;20208;-62
2021/05/01 04:19:20;;;;;;;121.27;34.63;;;7.60;99.90;;;;;;5073486;28;20593;-61
2021/05/01 04:21:46;;;;;;;80.90;35.60;;;7.60;99.90;;;;;;5073316;28;20495;-62
2021/05/01 04:24:12;;;;;;;73.27;34.67;;;7.60;99.90;;;;;;5073293;28;20212;-61
2021/05/01 04:26:39;;;;;;;68.53;33.60;;;7.70;99.90;;;;;;5073447;28;20708;-61
2021/05/01 04:29:06;;;;;;;64.60;32.27;;;7.80;99.90;;;;;;5073091;28;20225;-61
2021/05/01 04:31:33;;;;;;;57.50;32.87;;;7.90;99.90;;;;;;5073521;28;20204;-62
2021/05/01 04:33:59;;;;;;;48.70;33.83;;;7.90;99.90;;;;;;5073055;28;20201;-62
2021/05/01 04:36:25;;;;;;;54.47;32.77;;;8.00;99.90;;;;;;5073146;28;20205;-61
2021/05/01 04:38:51;;;;;;;50.37;32.93;;;8.20;99.90;;;;;;5072709;28;20223;-61
2021/05/01 04:41:17;;;;;;;54.00;32.67;;;8.10;99.90;;;;;;5073167;28;20209;-61
2021/05/01 04:43:46;;;;;;;72.37;31.90;;;8.10;99.90;;;;;;5072928;28;20201;-61
2021/05/01 04:46:16;;;;;;;50.07;32.43;;;8.10;99.90;;;;;;5072876;28;20312;-62
2021/05/01 04:48:43;;;;;;;52.37;35.73;;;8.20;99.90;;;;;;5072717;28;20205;-62
2021/05/01 04:51:09;;;;;;;60.10;40.43;;;8.20;99.90;;;;;;5072829;28;20239;-62
2021/05/01 04:53:35;;;;;;;45.17;29.70;;;8.30;99.90;;;;;;5072853;28;20577;-62
2021/05/01 04:56:02;;;;;;;48.10;30.40;;;8.50;99.90;;;;;;5072870;28;20250;-62
2021/05/01 04:58:28;;;;;;;39.27;29.67;;;8.40;99.90;;;;;;5071873;28;20681;-62
2021/05/01 05:00:54;;;;;;;41.93;30.37;;;8.50;99.90;;;;;;5072679;28;20379;-61
2021/05/01 05:03:20;;;;;;;43.37;34.03;;;8.50;99.90;;;;;;5072395;28;20605;-61
2021/05/01 05:05:47;;;;;;;48.27;31.63;;;8.60;99.90;;;;;;5073263;28;20236;-63
2021/05/01 05:08:14;;;;;;;41.47;29.03;;;8.70;99.90;;;;;;5072588;28;20208;-62
2021/05/01 05:10:40;;;;;;;39.97;29.60;;;8.70;99.90;;;;;;5072580;28;20335;-61
2021/05/01 05:13:06;;;;;;;42.73;29.93;;;8.70;99.90;;;;;;5072766;28;20216;-61
2021/05/01 05:15:32;;;;;;;48.40;31.57;;;8.80;99.90;;;;;;5073720;28;20208;-62
2021/05/01 05:17:58;;;;;;;44.13;29.17;;;8.80;99.90;;;;;;5072159;28;20672;-62
2021/05/01 05:20:25;;;;;;;44.30;29.83;;;8.80;99.90;;;;;;5072383;28;20663;-62
2021/05/01 05:22:52;;;;;;;41.37;29.23;;;8.90;99.90;;;;;;5072317;28;20205;-63
2021/05/01 05:25:18;;;;;;;39.03;27.83;;;9.10;99.90;;;;;;5071852;28;20221;-63
2021/05/01 05:27:44;;;;;;;38.43;28.43;;;9.30;99.90;;;;;;5071863;28;20212;-64
2021/05/01 05:30:11;;;;;;;37.97;28.60;;;9.50;99.90;;;;;;5071755;28;20738;-63
2021/05/01 05:32:38;;;;;;;57.57;40.17;;;9.60;99.90;;;;;;5072010;28;20245;-64
2021/05/01 05:35:05;;;;;;;38.57;28.50;;;9.80;99.90;;;;;;5071738;28;20212;-62
2021/05/01 05:37:31;;;;;;;37.60;28.53;;;9.90;99.90;;;;;;5071899;28;20212;-64
2021/05/01 05:39:58;;;;;;;33.00;25.90;;;10.00;99.90;;;;;;5071543;28;20234;-62
2021/05/01 05:42:24;;;;;;;33.80;25.93;;;10.10;99.90;;;;;;5071647;28;20208;-63
2021/05/01 05:44:51;;;;;;;35.23;26.03;;;10.10;99.90;;;;;;5071394;28;20205;-63
2021/05/01 05:47:18;;;;;;;32.20;25.23;;;10.30;99.90;;;;;;5071681;28;20657;-63
2021/05/01 05:49:45;;;;;;;32.40;25.77;;;10.50;99.90;;;;;;5071481;28;20220;-64
2021/05/01 05:52:11;;;;;;;31.60;24.93;;;10.90;99.90;;;;;;5071647;28;20204;-63
2021/05/01 05:54:38;;;;;;;31.17;24.03;;;11.20;99.90;;;;;;5071407;28;20270;-64
2021/05/01 05:57:07;;;;;;;30.83;25.10;;;11.70;99.90;;;;;;5071558;28;20208;-62
2021/05/01 05:59:33;;;;;;;32.13;25.77;;;12.00;99.90;;;;;;5071066;28;20232;-62
2021/05/01 06:02:02;;;;;;;29.80;24.63;;;12.10;99.90;;;;;;5071513;28;20205;-63
2021/05/01 06:04:31;;;;;;;26.57;23.60;;;12.50;99.90;;;;;;5071162;28;20209;-62
2021/05/01 06:07:03;;;;;;;26.73;22.50;;;13.20;99.90;;;;;;5071409;28;20263;-63
2021/05/01 06:09:30;;;;;;;29.03;23.53;;;13.70;99.90;;;;;;5070653;28;20237;-63
2021/05/01 06:11:59;;;;;;;25.83;23.03;;;13.70;99.90;;;;;;5070528;28;20205;-63
2021/05/01 06:14:27;;;;;;;28.40;23.17;;;13.70;99.90;;;;;;5071117;28;20296;-63
2021/05/01 06:16:55;;;;;;;27.30;23.50;;;13.90;99.90;;;;;;5071051;28;20201;-62
2021/05/01 06:19:22;;;;;;;30.13;24.27;;;14.00;99.90;;;;;;5070934;28;20236;-63
2021/05/01 06:21:49;;;;;;;26.67;23.53;;;13.80;99.90;;;;;;5071057;28;20207;-64
2021/05/01 06:24:16;;;;;;;27.47;24.53;;;13.70;99.90;;;;;;5070759;28;20299;-63
2021/05/01 06:26:43;;;;;;;25.63;22.73;;;13.70;99.90;;;;;;5070686;28;20224;-63
2021/05/01 06:29:10;;;;;;;27.40;23.40;;;13.70;99.90;;;;;;5070958;28;20232;-64
2021/05/01 06:31:38;;;;;;;25.20;22.57;;;13.40;99.90;;;;;;5071132;28;20215;-64
2021/05/01 06:34:06;;;;;;;26.30;23.33;;;13.20;99.90;;;;;;5071146;28;20205;-64
2021/05/01 06:36:33;;;;;;;25.50;22.10;;;13.20;99.90;;;;;;5071198;28;20201;-64
2021/05/01 06:39:03;;;;;;;25.33;22.50;;;13.50;99.90;;;;;;5070657;28;20233;-63
2021/05/01 06:41:38;;;;;;;25.23;22.53;;;13.90;99.90;;;;;;5071568;28;20189;-64
2021/05/01 06:44:08;;;;;;;25.60;22.90;;;14.20;99.90;;;;;;5070987;28;20234;-64
2021/05/01 06:46:39;;;;;;;25.40;22.70;;;14.70;99.90;;;;;;5070853;28;20327;-64
2021/05/01 06:49:11;;;;;;;25.83;23.13;;;14.90;99.30;;;;;;5070729;28;20225;-63
2021/05/01 06:51:39;;;;;;;24.63;22.07;;;14.80;99.20;;;;;;5070708;28;20213;-63
2021/05/01 06:54:08;;;;;;;23.77;21.37;;;14.90;99.20;;;;;;5070819;28;20205;-63
2021/05/01 06:56:39;;;;;;;24.17;21.60;;;15.30;98.30;;;;;;5071388;28;20224;-64
2021/05/01 06:59:06;;;;;;;25.73;22.80;;;15.40;97.70;;;;;;5070677;28;20232;-63
2021/05/01 07:01:34;;;;;;;26.10;23.30;;;15.20;97.70;;;;;;5070557;28;20669;-63
2021/05/01 07:04:03;;;;;;;25.53;22.60;;;15.00;97.80;;;;;;5070449;28;20201;-63
2021/05/01 07:06:29;;;;;;;24.63;22.03;;;15.00;97.80;;;;;;5070761;28;20228;-63
2021/05/01 07:08:59;;;;;;;26.03;23.23;;;15.00;97.40;;;;;;5070508;28;20236;-62
2021/05/01 07:11:25;;;;;;;22.57;19.83;;;15.00;97.70;;;;;;5070701;28;20550;-65
2021/05/01 07:13:52;;;;;;;23.80;21.17;;;14.90;97.60;;;;;;5070449;28;20590;-63
2021/05/01 07:16:18;;;;;;;24.47;21.63;;;14.70;97.70;;;;;;5070489;28;20212;-62
2021/05/01 07:18:45;;;;;;;22.17;19.77;;;15.10;98.10;;;;;;5070060;28;20205;-63
2021/05/01 07:21:14;;;;;;;19.20;17.00;;;15.50;96.00;;;;;;5070806;28;20220;-64
2021/05/01 07:23:40;;;;;;;19.03;17.07;;;15.60;94.60;;;;;;5074270;28;20201;-63
2021/05/01 07:26:08;;;;;;;22.00;18.17;;;15.50;94.60;;;;;;5074280;28;20696;-62
2021/05/01 07:28:37;;;;;;;20.80;18.00;;;15.70;94.50;;;;;;5073973;28;20260;-63
2021/05/01 07:31:07;;;;;;;19.57;17.63;;;15.80;94.10;;;;;;5074526;28;20213;-62
2021/05/01 07:33:42;;;;;;;21.60;19.30;;;15.90;93.40;;;;;;5074159;28;20201;-62
2021/05/01 07:36:11;;;;;;;23.17;20.00;;;15.90;93.70;;;;;;5074341;28;20201;-63
2021/05/01 07:38:42;;;;;;;21.90;19.53;;;15.90;93.60;;;;;;5073923;28;20492;-64
2021/05/01 07:41:11;;;;;;;24.57;20.73;;;15.80;94.10;;;;;;5074026;28;20201;-63
2021/05/01 07:43:42;;;;;;;21.63;19.33;;;15.80;94.10;;;;;;5073832;28;20209;-63
2021/05/01 07:46:10;;;;;;;21.47;19.23;;;15.90;93.60;;;;;;5073977;28;20229;-63
2021/05/01 07:48:38;;;;;;;20.43;18.23;;;15.80;93.60;;;;;;5073793;28;20258;-62
2021/05/01 07:51:05;;;;;;;21.63;19.43;;;15.80;93.40;;;;;;5073992;28;20209;-63
2021/05/01 07:53:31;;;;;;;21.90;18.33;;;15.70;93.30;;;;;;5073640;28;20592;-63
2021/05/01 07:56:00;;;;;;;21.33;19.13;;;15.30;93.20;;;;;;5074021;28;20200;-63
2021/05/01 07:58:26;;;;;;;20.97;18.77;;;15.00;94.10;;;;;;5073762;28;20244;-63
2021/05/01 08:00:52;;;;;;;22.58;19.55;;;14.80;94.10;;;;;;5073028;28;20434;-67
2021/05/01 08:03:21;;;;;;;21.23;18.97;;;14.40;94.50;;;;;;5070729;28;20266;-61
2021/05/01 08:05:50;;;;;;;21.33;19.03;;;14.20;94.90;;;;;;5073396;28;20779;-65
2021/05/01 08:08:17;;;;;;;20.73;18.57;;;14.10;96.40;;;;;;5073319;28;20205;-64
2021/05/01 08:10:44;;;;;;;22.40;20.03;;;14.20;95.40;;;;;;5073339;28;20715;-63
2021/05/01 08:13:11;;;;;;;21.40;18.90;;;14.40;95.10;;;;;;5073189;28;20205;-60
2021/05/01 08:15:38;;;;;;;22.40;20.00;;;14.80;94.40;;;;;;5073880;28;20205;-60
2021/05/01 08:18:06;;;;;;;20.47;18.07;;;15.10;93.60;;;;;;5072952;28;20205;-62
2021/05/01 08:20:33;;;;;;;20.63;18.30;;;15.40;92.90;;;;;;5073315;28;20712;-61
2021/05/01 08:22:59;;;;;;;20.77;18.57;;;15.30;93.00;;;;;;5073453;28;20201;-61
2021/05/01 08:25:26;;;;;;;21.87;19.57;;;15.00;93.30;;;;;;5073088;28;20696;-61
2021/05/01 08:27:52;;;;;;;25.63;19.97;;;14.90;93.30;;;;;;5073313;28;20204;-61
2021/05/01 08:30:20;;;;;;;21.30;19.07;;;15.00;93.30;;;;;;5075708;28;20224;-61
2021/05/01 08:32:47;;;;;;;21.50;19.20;;;14.70;93.20;;;;;;5073868;28;20205;-60
2021/05/01 08:35:15;;;;;;;26.70;23.80;;;14.40;93.80;;;;;;5073919;28;20201;-60
2021/05/01 08:37:42;;;;;;;23.40;21.00;;;14.20;94.40;;;;;;5073440;28;20581;-62
2021/05/01 08:40:12;;;;;;;25.90;20.97;;;14.50;94.30;;;;;;5072857;28;20231;-61
2021/05/01 08:42:41;;;;;;;22.33;19.70;;;14.60;94.10;;;;;;5073530;28;20201;-62
2021/05/01 08:45:09;;;;;;;23.80;21.30;;;14.80;94.10;;;;;;5063116;28;20339;-63
2021/05/01 08:47:40;;;;;;;23.07;19.93;;;14.80;93.90;;;;;;5052688;28;20719;-61
2021/05/01 08:50:09;;;;;;;20.90;18.70;;;14.80;94.00;;;;;;5052174;28;20225;-63
2021/05/01 08:52:35;;;;;;;21.13;18.87;;;14.60;94.10;;;;;;5052685;28;20212;-62
2021/05/01 08:55:02;;;;;;;23.20;20.70;;;14.20;94.80;;;;;;5053018;28;20721;-62
2021/05/01 08:57:30;;;;;;;22.03;19.60;;;14.30;95.00;;;;;;5059314;28;20205;-62
2021/05/01 08:59:56;;;;;;;22.63;19.77;;;14.50;94.70;;;;;;5063159;28;20229;-61
2021/05/01 09:02:26;;;;;;;21.23;18.37;;;14.80;94.40;;;;;;5072199;28;20208;-61
2021/05/01 09:04:54;;;;;;;23.73;19.87;;;15.00;93.70;;;;;;5071566;28;20680;-62
2021/05/01 09:07:21;;;;;;;21.50;19.20;;;15.10;94.10;;;;;;5072699;28;20228;-60
2021/05/01 09:09:53;;;;;;;21.30;19.00;;;15.30;93.50;;;;;;5072187;28;20254;-64
2021/05/01 09:12:34;;;;;;;22.80;19.57;;;15.60;92.90;;;;;;5072659;28;20656;-65
2021/05/01 09:15:02;;;;;;;23.47;20.80;;;15.50;93.30;;;;;;5071551;28;20209;-64
2021/05/01 09:17:29;;;;;;;21.97;19.50;;;15.80;93.40;;;;;;5072205;28;20201;-63
2021/05/01 09:20:03;;;;;;;23.30;20.27;;;16.10;92.10;;;;;;5084860;22;20234;-59
2021/05/01 09:22:29;;;;;;;21.20;18.77;;;16.20;92.10;;;;;;5052099;28;20589;-59
2021/05/01 09:25:05;;;;;;;22.20;19.17;;;15.90;92.00;;;;;;5051923;28;20237;-59
2021/05/01 09:27:32;;;;;;;23.93;19.97;;;15.70;92.40;;;;;;5052520;28;20225;-59
2021/05/01 09:30:12;;;;;;;22.67;20.07;;;15.80;92.60;;;;;;5051209;28;20229;-60
2021/05/01 09:32:39;;;;;;;21.30;19.00;;;16.00;92.50;;;;;;5051253;28;20201;-61
2021/05/01 09:35:08;;;;;;;20.87;18.57;;;15.90;92.00;;;;;;5051888;28;20209;-60
2021/05/01 09:37:35;;;;;;;20.97;18.73;;;15.80;92.20;;;;;;5051977;28;20205;-61
2021/05/01 09:40:01;;;;;;;21.67;19.37;;;15.70;92.10;;;;;;5051932;28;20654;-61
2021/05/01 09:42:30;;;;;;;22.33;19.80;;;16.00;92.30;;;;;;5052206;28;20216;-64
2021/05/01 09:45:08;;;;;;;21.83;19.23;;;16.30;92.10;;;;;;5052381;28;20201;-64
2021/05/01 09:47:35;;;;;;;24.35;21.85;;;16.70;91.70;;;;;;5050042;28;20871;-61
2021/05/01 09:50:19;;;;;;;21.40;19.20;;;17.00;91.30;;;;;;5052502;28;20230;-60
2021/05/01 09:52:59;;;;;;;22.57;19.40;;;17.20;90.80;;;;;;5052352;28;20232;-62
2021/05/01 09:55:44;;;;;;;22.10;19.80;;;17.40;91.00;;;;;;5042295;28;20205;-61
2021/05/01 09:58:25;;;;;;;21.17;18.97;;;17.40;90.80;;;;;;5051683;28;20209;-61
2021/05/01 10:00:53;;;;;;;23.50;19.13;;;17.20;90.60;;;;;;5051533;28;20283;-61
2021/05/01 10:03:21;;;;;;;22.30;19.57;;;16.70;90.90;;;;;;5051090;28;20239;-61
2021/05/01 10:05:51;;;;;;;21.70;19.17;;;16.30;91.90;;;;;;5051171;28;20222;-61
2021/05/01 10:08:20;;;;;;;23.17;19.17;;;15.90;92.70;;;;;;5051404;28;20267;-61
2021/05/01 10:10:48;;;;;;;19.77;17.73;;;15.80;92.70;;;;;;5050773;28;20225;-59
2021/05/01 10:13:15;;;;;;;19.73;17.63;;;15.60;92.40;;;;;;5050926;28;20607;-60
2021/05/01 10:15:44;;;;;;;23.50;19.40;;;15.80;92.60;;;;;;5069477;28;20661;-61
2021/05/01 10:18:12;;;;;;;20.47;18.10;;;16.20;92.30;;;;;;5071466;28;20216;-62
2021/05/01 10:20:45;;;;;;;20.93;18.23;;;16.60;91.80;;;;;;5052020;28;20256;-61
2021/05/01 10:23:14;;;;;;;19.93;17.60;;;16.90;91.30;;;;;;5051570;28;20217;-62
2021/05/01 10:25:41;;;;;;;20.73;17.90;;;17.20;90.70;;;;;;5051232;28;20672;-60
2021/05/01 10:28:11;;;;;;;19.60;17.60;;;17.30;90.60;;;;;;5050821;28;20401;-63
2021/05/01 10:30:40;;;;;;;21.00;18.57;;;17.30;90.70;;;;;;5051395;28;20222;-59
2021/05/01 10:33:23;;;;;;;21.17;18.63;;;17.00;90.70;;;;;;5051800;28;20232;-60
2021/05/01 10:35:52;;;;;;;20.77;17.83;;;17.10;90.50;;;;;;5052610;28;20209;-60
2021/05/01 10:38:21;;;;;;;20.13;17.97;;;17.40;89.60;;;;;;5052138;28;20213;-61
2021/05/01 10:40:49;;;;;;;19.47;17.47;;;17.50;89.40;;;;;;5051815;28;20232;-61
2021/05/01 10:43:19;;;;;;;23.43;17.37;;;17.70;89.10;;;;;;5051639;28;20205;-60
2021/05/01 10:45:54;;;;;;;20.43;17.90;;;17.60;89.50;;;;;;5051462;28;20274;-60
2021/05/01 10:48:20;;;;;;;21.67;19.37;;;17.30;90.30;;;;;;5051558;28;20204;-60
2021/05/01 10:50:59;;;;;;;21.33;19.13;;;17.40;90.50;;;;;;5051409;28;20221;-60
2021/05/01 10:53:26;;;;;;;23.30;20.70;;;17.50;90.20;;;;;;5050948;28;20609;-60
2021/05/01 10:55:54;;;;;;;20.87;18.63;;;17.50;90.10;;;;;;5051223;28;20212;-60
2021/05/01 10:58:40;;;;;;;22.13;19.83;;;17.60;90.00;;;;;;5055134;28;20669;-60
2021/05/01 11:01:08;;;;;;;21.73;18.93;;;17.50;89.40;;;;;;5055093;28;20685;-60
2021/05/01 11:03:42;;;;;;;23.30;19.43;;;17.40;90.00;;;;;;5054763;28;20205;-60
2021/05/01 11:06:12;;;;;;;22.20;19.37;;;17.50;88.90;;;;;;5055219;28;20220;-59
2021/05/01 11:08:50;;;;;;;22.40;19.80;;;17.50;89.40;;;;;;5055309;28;20704;-59
2021/05/01 11:11:18;;;;;;;22.33;19.70;;;17.30;89.20;;;;;;5055292;28;20257;-60
2021/05/01 11:13:50;;;;;;;22.80;19.80;;;17.10;90.10;;;;;;5054993;28;20209;-62
2021/05/01 11:16:17;;;;;;;23.43;18.77;;;17.20;90.30;;;;;;5054564;28;20251;-59
2021/05/01 11:18:45;;;;;;;23.43;19.20;;;17.20;88.70;;;;;;5054605;28;20614;-61
2021/05/01 11:21:12;;;;;;;21.87;19.23;;;17.20;88.60;;;;;;5054512;28;20230;-63
2021/05/01 11:23:39;;;;;;;21.63;19.37;;;17.10;89.30;;;;;;5054905;28;20202;-59
2021/05/01 11:26:08;;;;;;;21.70;19.03;;;17.10;89.40;;;;;;5054649;28;20375;-60
2021/05/01 11:28:37;;;;;;;22.37;19.27;;;17.10;90.10;;;;;;5054514;28;20206;-62
2021/05/01 11:31:04;;;;;;;21.57;19.10;;;17.30;90.20;;;;;;5054483;28;20230;-63
2021/05/01 11:33:33;;;;;;;23.90;21.37;;;17.40;90.20;;;;;;5054496;28;20210;-60
2021/05/01 11:35:59;;;;;;;25.17;20.60;;;17.40;90.00;;;;;;5054592;28;20205;-60
2021/05/01 11:38:30;;;;;;;22.13;18.93;;;17.50;89.50;;;;;;5054474;28;20214;-60
2021/05/01 11:40:56;;;;;;;22.47;20.07;;;17.50;88.80;;;;;;5054391;28;20581;-61
2021/05/01 11:43:32;;;;;;;24.23;20.50;;;17.50;90.10;;;;;;5054100;28;20216;-62
2021/05/01 11:46:22;;;;;;;22.27;19.70;;;17.80;89.30;;;;;;5054210;28;20499;-60
2021/05/01 11:48:54;;;;;;;23.97;19.33;;;17.90;89.50;;;;;;5054082;28;20202;-60
2021/05/01 11:51:29;;;;;;;21.60;18.83;;;17.90;87.90;;;;;;5054122;28;20240;-61
2021/05/01 11:54:04;;;;;;;21.47;19.17;;;17.60;87.80;;;;;;5054218;28;20189;-61
2021/05/01 11:56:42;;;;;;;22.53;19.90;;;17.10;89.00;;;;;;5054574;28;20205;-60
2021/05/01 11:59:11;;;;;;;22.33;20.03;;;17.00;90.30;;;;;;5054145;28;20237;-60
2021/05/01 12:01:52;;;;;;;21.20;18.87;;;17.30;90.20;;;;;;5054120;28;20216;-60
2021/05/01 12:04:20;;;;;;;21.40;19.10;;;17.70;88.80;;;;;;5053678;28;20305;-61
2021/05/01 12:06:54;;;;;;;22.20;19.87;;;17.80;87.90;;;;;;5054248;28;20249;-60
2021/05/01 12:09:24;;;;;;;23.90;20.40;;;17.70;87.80;;;;;;5053808;28;20221;-60
2021/05/01 12:11:51;;;;;;;23.43;20.13;;;17.70;88.80;;;;;;5053857;28;20202;-60
2021/05/01 12:14:19;;;;;;;24.20;20.70;;;17.80;90.00;;;;;;5053999;28;20237;-60
2021/05/01 12:16:46;;;;;;;21.43;19.00;;;18.10;88.50;;;;;;5053675;28;20576;-60
2021/05/01 12:19:22;;;;;;;24.20;20.10;;;18.30;88.10;;;;;;5053588;28;20216;-61
2021/05/01 12:21:48;;;;;;;25.97;19.40;;;18.90;86.00;;;;;;5053747;28;20205;-62
2021/05/01 12:24:27;;;;;;;21.20;18.93;;;19.00;83.60;;;;;;5053449;28;20672;-61
2021/05/01 12:26:53;;;;;;;21.67;19.33;;;18.80;83.40;;;;;;5053615;28;20316;-60
2021/05/01 12:29:32;;;;;;;21.63;19.40;;;18.60;83.50;;;;;;5053791;28;20234;-60
2021/05/01 12:32:03;;;;;;;20.80;18.08;;;18.80;83.40;;;;;;5053917;28;20209;-60
2021/05/01 12:35:02;;;;;;;21.45;19.15;;;19.10;82.90;;;;;;5053663;28;20240;-60